createdAt,value
2019-06-20T00:13:15.848Z,7.10
2019-06-20T00:16:05.248Z,7.28
2019-06-20T00:18:55.208Z,8.63
2019-06-20T00:21:44.243Z,10.13
2019-06-20T00:24:33.251Z,11.10
2019-06-20T00:27:22.079Z,9.98
2019-06-20T00:30:13.240Z,9.10
2019-06-20T00:33:02.385Z,8.70
2019-06-20T00:35:51.013Z,8.50
2019-06-20T00:38:40.403Z,7.95
2019-06-20T00:41:29.747Z,7.90
2019-06-20T00:44:18.893Z,7.50
2019-06-20T00:47:09.084Z,7.60
2019-06-20T00:49:58.102Z,8.20
2019-06-20T00:52:47.630Z,7.25
2019-06-20T00:55:37.563Z,7.35
2019-06-20T00:58:27.126Z,7.03
2019-06-20T01:01:16.156Z,7.45
2019-06-20T01:04:05.873Z,6.95
2019-06-20T01:06:55.133Z,6.80
2019-06-20T01:09:44.617Z,7.58
2019-06-20T01:12:33.612Z,7.47
2019-06-20T01:15:23.461Z,7.17
2019-06-20T01:18:12.121Z,6.87
2019-06-20T01:21:01.876Z,7.33
2019-06-20T01:23:51.070Z,7.22
2019-06-20T01:26:40.021Z,6.97
2019-06-20T01:29:29.741Z,7.85
2019-06-20T01:32:18.707Z,7.65
2019-06-20T01:35:09.268Z,7.92
2019-06-20T01:37:58.661Z,8.35
2019-06-20T01:40:48.324Z,8.73
2019-06-20T01:43:50.040Z,9.18
2019-06-20T01:46:27.791Z,7.75
2019-06-20T01:49:16.546Z,8.45
2019-06-20T01:52:05.403Z,7.78
2019-06-20T01:54:54.673Z,7.67
2019-06-20T01:57:43.931Z,8.40
2019-06-20T02:00:38.715Z,9.28
2019-06-20T02:03:27.687Z,8.63
2019-06-20T02:06:16.876Z,7.75
2019-06-20T02:09:08.378Z,8.23
2019-06-20T02:11:57.974Z,8.05
2019-06-20T02:14:47.342Z,9.45
2019-06-20T02:17:36.315Z,9.55
2019-06-20T02:20:54.571Z,9.03
2019-06-20T02:23:43.652Z,9.20
2019-06-20T02:26:33.001Z,12.13
2019-06-20T02:29:22.492Z,11.63
2019-06-20T02:32:11.552Z,8.70
2019-06-20T02:35:00.839Z,9.20
2019-06-20T02:37:50.195Z,9.68
2019-06-20T02:40:41.213Z,8.90
2019-06-20T02:43:30.348Z,9.23
2019-06-20T02:46:19.335Z,7.97
2019-06-20T02:49:08.328Z,9.18
2019-06-20T02:51:57.791Z,6.80
2019-06-20T02:54:46.912Z,7.10
2019-06-20T02:57:35.733Z,6.47
2019-06-20T03:00:55.161Z,6.25
2019-06-20T03:03:43.890Z,5.75
2019-06-20T03:06:33.187Z,5.45
2019-06-20T03:09:22.537Z,5.30
2019-06-20T03:12:12.225Z,4.90
2019-06-20T03:15:01.055Z,5.58
2019-06-20T03:17:50.147Z,5.00
2019-06-20T03:20:39.613Z,4.70
2019-06-20T03:23:28.539Z,4.40
2019-06-20T03:26:17.218Z,5.37
2019-06-20T03:29:06.614Z,5.37
2019-06-20T03:31:55.588Z,5.25
2019-06-20T03:34:45.261Z,5.60
2019-06-20T03:37:35.536Z,5.58
2019-06-20T03:40:25.127Z,5.60
2019-06-20T03:43:14.483Z,5.60
2019-06-20T03:46:04.181Z,5.72
2019-06-20T03:48:53.309Z,4.90
2019-06-20T03:51:42.772Z,7.05
2019-06-20T03:54:32.112Z,6.08
2019-06-20T03:57:21.152Z,6.03
2019-06-20T04:00:12.176Z,6.67
2019-06-20T04:03:01.357Z,6.87
2019-06-20T04:05:49.864Z,5.90
2019-06-20T04:08:39.561Z,6.28
2019-06-20T04:11:28.608Z,6.75
2019-06-20T04:14:18.110Z,6.87
2019-06-20T04:17:07.428Z,6.85
2019-06-20T04:19:56.851Z,7.20
2019-06-20T04:22:45.902Z,6.78
2019-06-20T04:25:35.285Z,7.35
2019-06-20T04:28:24.590Z,6.77
2019-06-20T04:31:14.234Z,7.73
2019-06-20T04:34:03.213Z,7.33
2019-06-20T04:36:52.515Z,8.00
2019-06-20T04:39:41.582Z,7.83
2019-06-20T04:42:31.212Z,7.60
2019-06-20T04:45:34.571Z,7.20
2019-06-20T04:48:15.805Z,6.63
2019-06-20T04:51:04.722Z,7.17
2019-06-20T04:53:54.711Z,7.70
2019-06-20T04:56:43.279Z,7.57
2019-06-20T04:59:32.570Z,6.90
2019-06-20T05:02:23.396Z,7.40
2019-06-20T05:05:12.433Z,7.80
2019-06-20T05:08:01.804Z,7.57
2019-06-20T05:10:51.227Z,7.80
2019-06-20T05:13:40.237Z,8.47
2019-06-20T05:16:29.425Z,9.17
2019-06-20T05:19:18.450Z,9.53
2019-06-20T05:22:07.307Z,8.40
2019-06-20T05:24:56.710Z,8.43
2019-06-20T05:27:45.728Z,8.63
2019-06-20T05:30:34.552Z,8.80
2019-06-20T05:33:23.665Z,9.40
2019-06-20T05:36:12.967Z,9.30
2019-06-20T05:39:02.240Z,9.97
2019-06-20T05:41:50.891Z,10.13
2019-06-20T05:44:39.935Z,10.70
2019-06-20T05:47:29.017Z,10.97
2019-06-20T05:50:18.726Z,10.97
2019-06-20T05:53:07.515Z,11.17
2019-06-20T05:55:56.930Z,11.30
2019-06-20T05:58:46.010Z,11.17
2019-06-20T06:01:35.108Z,13.10
2019-06-20T06:04:23.718Z,15.07
2019-06-20T06:07:14.246Z,14.83
2019-06-20T06:10:05.754Z,17.83
2019-06-20T06:12:54.815Z,19.73
2019-06-20T06:15:44.335Z,20.00
2019-06-20T06:18:33.703Z,22.93
2019-06-20T06:21:22.745Z,25.77
2019-06-20T06:24:11.761Z,27.53
2019-06-20T06:27:00.774Z,27.93
2019-06-20T06:29:50.100Z,26.60
2019-06-20T06:32:40.729Z,26.90
2019-06-20T06:35:29.907Z,27.80
2019-06-20T06:38:21.898Z,27.50
2019-06-20T06:41:09.684Z,28.30
2019-06-20T06:43:58.723Z,27.87
2019-06-20T06:46:54.232Z,29.40
2019-06-20T06:49:39.767Z,27.37
2019-06-20T06:52:29.592Z,28.87
2019-06-20T06:55:18.732Z,29.10
2019-06-20T06:58:07.924Z,27.97
2019-06-20T07:00:56.794Z,30.30
2019-06-20T07:03:45.640Z,30.20
2019-06-20T07:06:34.982Z,32.07
2019-06-20T07:09:24.289Z,33.17
2019-06-20T07:12:13.241Z,36.10
2019-06-20T07:15:02.547Z,34.30
2019-06-20T07:17:51.590Z,34.20
2019-06-20T07:20:40.433Z,36.47
2019-06-20T07:23:29.813Z,38.07
2019-06-20T07:26:19.238Z,36.80
2019-06-20T07:29:08.554Z,36.37
2019-06-20T07:31:57.780Z,33.23
2019-06-20T07:34:47.100Z,31.93
2019-06-20T07:37:36.161Z,33.80
2019-06-20T07:40:24.802Z,32.90
2019-06-20T07:43:14.163Z,34.13
2019-06-20T07:46:03.459Z,33.40
2019-06-20T07:48:53.658Z,34.60
2019-06-20T07:51:42.598Z,33.40
2019-06-20T07:54:31.680Z,33.57
2019-06-20T07:57:20.622Z,33.63
2019-06-20T08:00:14.339Z,30.87
2019-06-20T08:03:03.787Z,30.33
2019-06-20T08:05:53.476Z,28.37
2019-06-20T08:08:43.354Z,29.70
2019-06-20T08:11:32.283Z,27.07
2019-06-20T08:14:21.704Z,27.53
2019-06-20T08:17:10.623Z,25.83
2019-06-20T08:19:59.921Z,23.13
2019-06-20T08:22:49.278Z,23.63
2019-06-20T08:25:38.459Z,21.47
2019-06-20T08:28:28.239Z,22.60
2019-06-20T08:31:17.567Z,20.83
2019-06-20T08:34:06.647Z,19.10
2019-06-20T08:36:57.232Z,20.33
2019-06-20T08:39:46.351Z,20.80
2019-06-20T08:42:35.451Z,19.60
2019-06-20T08:45:28.249Z,20.57
2019-06-20T08:48:17.739Z,21.10
2019-06-20T08:51:06.618Z,20.37
2019-06-20T08:53:56.337Z,21.30
2019-06-20T08:56:46.334Z,21.20
2019-06-20T08:59:35.319Z,20.70
2019-06-20T09:02:23.916Z,21.23
2019-06-20T09:05:14.482Z,21.10
2019-06-20T09:10:54.336Z,22.40
2019-06-20T09:13:44.134Z,20.63
2019-06-20T09:16:32.948Z,20.03
2019-06-20T09:19:22.259Z,20.60
2019-06-20T09:22:11.385Z,20.17
2019-06-20T09:25:00.868Z,21.93
2019-06-20T09:27:49.905Z,20.77
2019-06-20T09:30:39.604Z,22.43
2019-06-20T09:33:29.017Z,20.60
2019-06-20T09:36:17.996Z,21.30
2019-06-20T09:39:08.177Z,21.63
2019-06-20T09:41:56.768Z,21.53
2019-06-20T09:44:45.790Z,21.73
2019-06-20T09:47:34.751Z,20.57
2019-06-20T09:50:23.917Z,20.77
2019-06-20T09:53:12.683Z,20.07
2019-06-20T09:56:01.849Z,20.20
2019-06-20T09:58:51.404Z,19.30
2019-06-20T10:01:40.796Z,21.63
2019-06-20T10:04:30.061Z,22.20
2019-06-20T10:07:19.060Z,21.27
2019-06-20T10:10:11.779Z,23.60
2019-06-20T10:13:01.548Z,22.87
2019-06-20T10:15:51.533Z,23.10
2019-06-20T10:18:40.907Z,23.10
2019-06-20T10:21:29.906Z,22.73
2019-06-20T10:24:19.455Z,23.30
2019-06-20T10:27:08.768Z,22.27
2019-06-20T10:30:10.683Z,20.80
2019-06-20T10:32:49.193Z,19.57
2019-06-20T10:35:38.680Z,18.10
2019-06-20T10:38:28.401Z,17.90
2019-06-20T10:41:17.364Z,16.10
2019-06-20T10:44:07.664Z,12.30
2019-06-20T10:46:56.483Z,10.10
2019-06-20T10:49:46.228Z,9.70
2019-06-20T10:52:35.874Z,9.77
2019-06-20T10:55:25.985Z,10.60
2019-06-20T10:58:15.098Z,8.90
2019-06-20T11:01:04.262Z,8.40
2019-06-20T11:03:53.026Z,7.60
2019-06-20T11:06:43.159Z,7.93
2019-06-20T11:09:32.586Z,7.23
2019-06-20T11:12:21.067Z,7.53
2019-06-20T11:15:10.382Z,6.77
2019-06-20T11:17:58.979Z,8.07
2019-06-20T11:20:48.764Z,8.50
2019-06-20T11:23:39.381Z,8.10
2019-06-20T11:26:29.220Z,8.90
2019-06-20T11:29:18.498Z,8.70
2019-06-20T11:32:07.806Z,9.33
2019-06-20T11:34:56.832Z,8.20
2019-06-20T11:37:47.130Z,7.77
2019-06-20T11:40:38.137Z,8.23
2019-06-20T11:43:28.183Z,7.97
2019-06-20T11:46:17.509Z,8.20
2019-06-20T11:49:06.098Z,7.50
2019-06-20T11:51:55.004Z,8.00
2019-06-20T11:54:43.929Z,9.47
2019-06-20T11:57:33.434Z,8.47
2019-06-20T12:00:22.831Z,8.70
2019-06-20T12:03:11.973Z,8.47
2019-06-20T12:06:00.837Z,10.40
2019-06-20T12:08:50.110Z,11.40
2019-06-20T12:11:40.646Z,10.83
2019-06-20T12:14:29.770Z,10.43
2019-06-20T12:17:18.633Z,11.73
2019-06-20T12:20:08.815Z,12.10
2019-06-20T12:22:57.772Z,12.10
2019-06-20T12:25:46.630Z,12.00
2019-06-20T12:28:36.219Z,11.60
2019-06-20T12:31:24.980Z,11.73
2019-06-20T12:34:14.208Z,12.17
2019-06-20T12:37:03.212Z,11.10
2019-06-20T12:39:52.553Z,10.90
2019-06-20T12:42:43.157Z,10.40
2019-06-20T12:45:31.736Z,9.73
2019-06-20T12:48:21.200Z,10.07
2019-06-20T12:51:10.404Z,9.90
2019-06-20T12:53:59.312Z,9.80
2019-06-20T12:56:48.301Z,9.87
2019-06-20T12:59:39.142Z,11.57
2019-06-20T13:02:28.428Z,10.80
2019-06-20T13:05:19.172Z,9.63
2019-06-20T13:08:08.561Z,10.70
2019-06-20T13:10:57.679Z,9.60
2019-06-20T13:13:46.633Z,9.87
2019-06-20T13:16:35.647Z,10.00
2019-06-20T13:19:24.715Z,9.87
2019-06-20T13:22:13.795Z,10.00
2019-06-20T13:25:02.647Z,9.80
2019-06-20T13:27:51.614Z,9.63
2019-06-20T13:30:43.769Z,9.00
2019-06-20T13:33:31.176Z,9.20
2019-06-20T13:36:20.352Z,10.03
2019-06-20T13:39:09.535Z,9.47
2019-06-20T13:41:58.972Z,10.20
2019-06-20T13:44:47.576Z,9.13
2019-06-20T13:47:37.007Z,9.87
2019-06-20T13:50:26.706Z,8.83
2019-06-20T13:53:16.051Z,10.03
2019-06-20T13:56:05.431Z,11.03
2019-06-20T13:58:54.175Z,11.83
2019-06-20T14:01:44.059Z,11.80
2019-06-20T14:04:33.510Z,13.10
2019-06-20T14:07:22.609Z,12.47
2019-06-20T14:10:12.381Z,13.00
2019-06-20T14:13:01.455Z,14.77
2019-06-20T14:15:51.239Z,14.20
2019-06-20T14:18:42.552Z,11.30
2019-06-20T14:21:30.995Z,12.37
2019-06-20T14:24:20.082Z,13.00
2019-06-20T14:27:10.932Z,11.97
2019-06-20T14:29:59.996Z,12.00
2019-06-20T14:32:49.699Z,11.30
2019-06-20T14:35:39.685Z,11.17
2019-06-20T14:38:28.775Z,13.30
2019-06-20T14:41:18.053Z,12.00
2019-06-20T14:44:07.407Z,11.20
2019-06-20T14:46:56.479Z,10.43
2019-06-20T14:49:45.885Z,11.17
2019-06-20T14:52:35.415Z,9.80
2019-06-20T14:55:25.097Z,10.73
2019-06-20T14:58:13.965Z,10.50
2019-06-20T15:01:03.277Z,9.60
2019-06-20T15:03:53.808Z,10.20
2019-06-20T15:06:44.918Z,18.70
2019-06-20T15:09:33.809Z,14.00
2019-06-20T15:12:23.006Z,11.60
2019-06-20T15:15:15.193Z,12.67
2019-06-20T15:18:04.640Z,11.63
2019-06-20T15:20:57.816Z,11.37
2019-06-20T15:23:47.257Z,11.93
2019-06-20T15:26:35.771Z,11.40
2019-06-20T15:29:25.081Z,11.67
2019-06-20T15:32:14.515Z,12.10
2019-06-20T15:35:05.318Z,13.13
2019-06-20T15:37:55.493Z,12.10
2019-06-20T15:40:47.885Z,11.77
2019-06-20T15:43:36.141Z,11.70
2019-06-20T15:46:25.683Z,12.80
2019-06-20T15:49:16.415Z,13.17
2019-06-20T15:52:05.692Z,13.83
2019-06-20T15:54:54.567Z,8.30
2019-06-20T15:57:43.476Z,5.60
2019-06-20T16:00:33.762Z,5.23
2019-06-20T16:03:23.034Z,7.00
2019-06-20T16:06:12.196Z,5.70
2019-06-20T16:09:00.879Z,6.90
2019-06-20T16:11:50.632Z,6.70
2019-06-20T16:14:39.728Z,6.80
2019-06-20T16:17:31.527Z,6.60
2019-06-20T16:20:21.937Z,6.00
2019-06-20T16:23:11.361Z,6.00
2019-06-20T16:26:00.381Z,5.17
2019-06-20T16:28:49.321Z,5.43
2019-06-20T16:31:38.293Z,7.80
2019-06-20T16:34:26.786Z,7.80
2019-06-20T16:37:16.012Z,7.80
2019-06-20T16:40:08.922Z,7.87
2019-06-20T16:42:57.637Z,6.17
2019-06-20T16:45:47.093Z,6.93
2019-06-20T16:48:35.688Z,7.87
2019-06-20T16:51:24.710Z,6.70
2019-06-20T16:54:13.486Z,5.57
2019-06-20T16:57:02.985Z,6.03
2019-06-20T16:59:52.090Z,5.73
2019-06-20T17:02:41.336Z,6.77
2019-06-20T17:05:30.772Z,7.50
2019-06-20T17:08:20.116Z,6.47
2019-06-20T17:11:09.707Z,10.90
2019-06-20T17:13:58.927Z,6.37
2019-06-20T17:16:48.238Z,4.50
2019-06-20T17:19:41.812Z,5.10
2019-06-20T17:22:28.002Z,4.77
2019-06-20T17:25:19.124Z,5.33
2019-06-20T17:28:08.919Z,5.87
2019-06-20T17:30:57.994Z,6.50
2019-06-20T17:33:57.034Z,7.90
2019-06-20T17:36:37.948Z,8.33
2019-06-20T17:39:27.168Z,7.33
2019-06-20T17:42:15.872Z,6.50
2019-06-20T17:45:07.487Z,9.67
2019-06-20T17:47:58.537Z,6.90
2019-06-20T17:50:47.326Z,7.90
2019-06-20T17:53:36.470Z,6.67
2019-06-20T17:56:25.797Z,7.00
2019-06-20T17:59:15.108Z,7.80
2019-06-20T18:02:03.912Z,7.10
2019-06-20T18:04:52.778Z,7.37
2019-06-20T18:07:42.082Z,8.37
2019-06-20T18:10:30.758Z,7.20
2019-06-20T18:13:20.113Z,9.23
2019-06-20T18:16:24.129Z,7.43
2019-06-20T18:19:00.498Z,7.90
2019-06-20T18:21:49.911Z,9.33
2019-06-20T18:24:39.258Z,9.70
2019-06-20T18:27:28.396Z,10.73
2019-06-20T18:30:17.840Z,10.20
2019-06-20T18:33:07.246Z,10.70
2019-06-20T18:35:56.810Z,8.43
2019-06-20T18:38:45.835Z,8.87
2019-06-20T18:41:35.182Z,8.20
2019-06-20T18:44:24.060Z,12.10
2019-06-20T18:47:13.179Z,11.70
2019-06-20T18:50:02.668Z,9.60
2019-06-20T18:52:52.954Z,13.20
2019-06-20T18:55:42.374Z,12.03
2019-06-20T18:58:31.992Z,10.37
2019-06-20T19:01:21.153Z,11.63
2019-06-20T19:04:09.900Z,10.47
2019-06-20T19:06:59.686Z,11.67
2019-06-20T19:09:48.632Z,9.90
2019-06-20T19:12:37.307Z,10.73
2019-06-20T19:15:26.966Z,40.67
2019-06-20T19:18:16.263Z,10.57
2019-06-20T19:21:05.546Z,14.10
2019-06-20T19:23:55.519Z,10.33
2019-06-20T19:26:45.412Z,15.00
2019-06-20T19:29:35.056Z,10.80
2019-06-20T19:32:23.723Z,9.80
2019-06-20T19:35:13.413Z,13.20
2019-06-20T19:38:02.390Z,9.87
2019-06-20T19:40:53.302Z,13.67
2019-06-20T19:43:42.749Z,13.00
2019-06-20T19:46:31.794Z,10.80
2019-06-20T19:49:20.647Z,10.90
2019-06-20T19:52:09.873Z,11.60
2019-06-20T19:54:58.924Z,12.47
2019-06-20T19:57:48.299Z,13.70
2019-06-20T20:00:37.135Z,17.80
2019-06-20T20:03:26.410Z,14.47
2019-06-20T20:06:15.683Z,12.40
2019-06-20T20:09:06.569Z,18.73
2019-06-20T20:11:57.286Z,16.80
2019-06-20T20:14:46.667Z,16.43
2019-06-20T20:17:36.293Z,18.40
2019-06-20T20:20:25.388Z,16.27
2019-06-20T20:23:15.192Z,14.87
2019-06-20T20:26:04.221Z,15.30
2019-06-20T20:28:53.626Z,14.27
2019-06-20T20:31:42.886Z,13.90
2019-06-20T20:34:32.231Z,15.93
2019-06-20T20:37:21.730Z,14.70
2019-06-20T20:40:12.185Z,15.07
2019-06-20T20:43:02.961Z,16.30
2019-06-20T20:45:52.241Z,14.77
2019-06-20T20:48:41.392Z,15.70
2019-06-20T20:51:30.979Z,15.23
2019-06-20T20:54:19.568Z,15.23
2019-06-20T20:57:09.092Z,15.63
2019-06-20T20:59:57.915Z,13.80
2019-06-20T21:02:47.317Z,12.37
2019-06-20T21:05:50.600Z,13.20
2019-06-20T21:08:26.643Z,13.23
2019-06-20T21:11:16.332Z,13.63
2019-06-20T21:14:05.927Z,14.45
2019-06-20T21:16:55.767Z,14.93
2019-06-20T21:19:44.977Z,14.70
2019-06-20T21:22:34.370Z,14.77
2019-06-20T21:25:23.225Z,14.15
2019-06-20T21:28:12.709Z,12.83
2019-06-20T21:31:01.801Z,13.58
2019-06-20T21:33:54.145Z,14.40
2019-06-20T21:36:41.808Z,13.00
2019-06-20T21:39:30.831Z,13.60
2019-06-20T21:42:20.270Z,18.70
2019-06-20T21:45:10.860Z,12.73
2019-06-20T21:48:00.339Z,12.60
2019-06-20T21:50:49.521Z,14.75
2019-06-20T21:53:39.082Z,12.70
2019-06-20T21:56:28.106Z,12.35
2019-06-20T21:59:17.217Z,14.30
2019-06-20T22:02:07.716Z,15.15
2019-06-20T22:04:56.561Z,12.53
2019-06-20T22:07:45.327Z,13.95
2019-06-20T22:10:34.494Z,13.45
2019-06-20T22:13:23.961Z,12.23
2019-06-20T22:16:13.129Z,14.18
2019-06-20T22:19:02.199Z,13.60
2019-06-20T22:21:51.676Z,14.40
2019-06-20T22:24:40.725Z,13.18
2019-06-20T22:27:30.519Z,11.95
2019-06-20T22:30:39.690Z,12.37
2019-06-20T22:33:29.549Z,12.07
2019-06-20T22:36:18.516Z,12.65
2019-06-20T22:39:09.763Z,11.22
2019-06-20T22:41:58.619Z,11.78
2019-06-20T22:44:47.743Z,12.35
2019-06-20T22:47:37.135Z,11.85
2019-06-20T22:50:26.626Z,10.98
2019-06-20T22:53:15.953Z,10.93
2019-06-20T22:56:05.330Z,9.65
2019-06-20T22:58:54.355Z,9.95
2019-06-20T23:01:43.563Z,8.63
2019-06-20T23:04:32.835Z,8.38
2019-06-20T23:07:21.914Z,8.20
2019-06-20T23:10:11.786Z,8.18
2019-06-20T23:13:00.855Z,7.20
2019-06-20T23:15:49.440Z,7.67
2019-06-20T23:18:38.341Z,7.45
2019-06-20T23:21:27.582Z,6.83
2019-06-20T23:24:16.264Z,7.95
2019-06-20T23:27:05.576Z,7.67
2019-06-20T23:29:54.403Z,6.15
2019-06-20T23:32:44.010Z,6.72
2019-06-20T23:35:33.693Z,6.05
2019-06-20T23:38:22.950Z,6.00
2019-06-20T23:41:12.419Z,5.90
2019-06-20T23:44:01.390Z,6.37
2019-06-20T23:46:50.670Z,6.00
2019-06-20T23:49:40.068Z,5.53
2019-06-20T23:52:33.700Z,5.67
2019-06-20T23:55:22.314Z,5.90
2019-06-20T23:58:11.514Z,5.40
